地図

経路データ

SID SEASON NUMBER BASIN SUBBASIN NAME ISO_TIME NATURE LAT LON WMO_WIND WMO_PRES WMO_AGENCY TRACK_TYPE DIST2LAND LANDFALL IFLAG USA_AGENCY USA_ATCF_ID USA_LAT USA_LON USA_RECORD USA_STATUS USA_WIND USA_PRES USA_SSHS USA_R34_NE USA_R34_SE USA_R34_SW USA_R34_NW USA_R50_NE USA_R50_SE USA_R50_SW USA_R50_NW USA_R64_NE USA_R64_SE USA_R64_SW USA_R64_NW USA_POCI USA_ROCI USA_RMW USA_EYE TOKYO_LAT TOKYO_LON TOKYO_GRADE TOKYO_WIND TOKYO_PRES TOKYO_R50_DIR TOKYO_R50_LONG TOKYO_R50_SHORT TOKYO_R30_DIR TOKYO_R30_LONG TOKYO_R30_SHORT TOKYO_LAND CMA_LAT CMA_LON CMA_CAT CMA_WIND CMA_PRES HKO_LAT HKO_LON HKO_CAT HKO_WIND HKO_PRES NEWDELHI_LAT NEWDELHI_LON NEWDELHI_GRADE NEWDELHI_WIND NEWDELHI_PRES NEWDELHI_CI NEWDELHI_DP NEWDELHI_POCI REUNION_LAT REUNION_LON REUNION_TYPE REUNION_WIND REUNION_PRES REUNION_TNUM REUNION_CI REUNION_RMW REUNION_R34_NE REUNION_R34_SE REUNION_R34_SW REUNION_R34_NW REUNION_R50_NE REUNION_R50_SE REUNION_R50_SW REUNION_R50_NW REUNION_R64_NE REUNION_R64_SE REUNION_R64_SW REUNION_R64_NW BOM_LAT BOM_LON BOM_TYPE BOM_WIND BOM_PRES BOM_TNUM BOM_CI BOM_RMW BOM_R34_NE BOM_R34_SE BOM_R34_SW BOM_R34_NW BOM_R50_NE BOM_R50_SE BOM_R50_SW BOM_R50_NW BOM_R64_NE BOM_R64_SE BOM_R64_SW BOM_R64_NW BOM_ROCI BOM_POCI BOM_EYE BOM_POS_METHOD BOM_PRES_METHOD NADI_LAT NADI_LON NADI_CAT NADI_WIND NADI_PRES WELLINGTON_LAT WELLINGTON_LON WELLINGTON_WIND WELLINGTON_PRES DS824_LAT DS824_LON DS824_STAGE DS824_WIND DS824_PRES TD9636_LAT TD9636_LON TD9636_STAGE TD9636_WIND TD9636_PRES TD9635_LAT TD9635_LON TD9635_WIND TD9635_PRES TD9635_ROCI NEUMANN_LAT NEUMANN_LON NEUMANN_CLASS NEUMANN_WIND NEUMANN_PRES MLC_LAT MLC_LON MLC_CLASS MLC_WIND MLC_PRES USA_GUST BOM_GUST BOM_GUST_PER REUNION_GUST REUNION_GUST_PER USA_SEAHGT USA_SEARAD_NE USA_SEARAD_SE USA_SEARAD_SW USA_SEARAD_NW STORM_SPEED STORM_DIR
1951267N13259 1951 73 EP MM NOT_NAMED 1951-09-23 12:00:00 TS 13.4000 -100.700 75 hurdat_epa main 384 384 O________OO___ hurdat_epa EP081951 13.4000 -100.700 HU 75 1 13.4000 -100.700 TC 75 13.4000 -100.700 4 10 275
1951267N13259 1951 73 EP MM NOT_NAMED 1951-09-23 15:00:00 TS 13.4399 -101.207 main 403 397 P________PP___ EP081951 13.4352 -101.205 HU 75 1 13.4352 -101.205 TC 75 13.4590 -101.217 4 10 276
1951267N13259 1951 73 EP MM NOT_NAMED 1951-09-23 18:00:00 TS 13.5068 -101.703 75 hurdat_epa main 417 417 O________OP___ hurdat_epa EP081951 13.5000 -101.700 HU 75 1 13.5000 -101.700 TC 75 13.5338 -101.717 4 10 281
1951267N13259 1951 73 EP MM NOT_NAMED 1951-09-23 21:00:00 TS 13.6243 -102.175 main 430 419 P________PP___ EP081951 13.6200 -102.173 HU 75 1 13.6200 -102.173 TC 75 13.6418 -102.184 4 9 289
1951267N13259 1951 73 EP MM NOT_NAMED 1951-09-24 00:00:00 TS 13.8000 -102.600 75 hurdat_epa main 423 416 O________OO___ hurdat_epa EP081951 13.8000 -102.600 HU 75 1 13.8000 -102.600 TC 75 13.8000 -102.600 4 9 298
1951267N13259 1951 73 EP MM NOT_NAMED 1951-09-24 03:00:00 TS 14.0316 -102.964 main 421 404 P________PP___ EP081951 14.0349 -102.965 HU 75 1 14.0349 -102.965 TC 75 14.0183 -102.958 4 8 306
1951267N13259 1951 73 EP MM NOT_NAMED 1951-09-24 06:00:00 TS 14.2953 -103.297 75 hurdat_epa main 410 401 O________OP___ hurdat_epa EP081951 14.3000 -103.300 HU 75 1 14.3000 -103.300 TC 75 14.2764 -103.285 4 8 309
1951267N13259 1951 73 EP MM NOT_NAMED 1951-09-24 09:00:00 TS 14.5551 -103.626 main 394 384 P________PP___ EP081951 14.5573 -103.628 HU 75 1 14.5573 -103.628 TC 75 14.5464 -103.620 4 9 307
1951267N13259 1951 73 EP MM NOT_NAMED 1951-09-24 12:00:00 TS 14.8000 -104.000 75 hurdat_epa main 387 376 O________OO___ hurdat_epa EP081951 14.8000 -104.000 HU 75 1 14.8000 -104.000 TC 75 14.8000 -104.000 4 9 299
1951267N13259 1951 73 EP MM NOT_NAMED 1951-09-24 15:00:00 TS 15.0130 -104.473 main 383 376 P________PP___ EP081951 15.0150 -104.470 HU 75 1 15.0150 -104.470 TC 75 15.0049 -104.483 4 10 292
1951267N13259 1951 73 EP MM NOT_NAMED 1951-09-24 18:00:00 TS 15.1976 -105.003 75 hurdat_epa main 381 381 O________OP___ hurdat_epa EP081951 15.2000 -105.000 HU 75 1 15.2000 -105.000 TC 75 15.1879 -105.013 4 11 289
1951267N13259 1951 73 EP MM NOT_NAMED 1951-09-24 21:00:00 TS 15.3623 -105.552 main 394 394 P________PP___ EP081951 15.3650 -105.550 HU 75 1 15.3650 -105.550 TC 75 15.3518 -105.561 4 11 286
1951267N13259 1951 73 EP MM NOT_NAMED 1951-09-25 00:00:00 TS 15.5000 -106.100 75 hurdat_epa main 418 418 O________OO___ hurdat_epa EP081951 15.5000 -106.100 HU 75 1 15.5000 -106.100 TC 75 15.5000 -106.100 4 10 283
1951267N13259 1951 73 EP MM NOT_NAMED 1951-09-25 03:00:00 TS 15.6060 -106.608 main 445 445 P________PP___ EP081951 15.5999 -106.615 HU 75 1 15.5999 -106.615 TC 75 15.6306 -106.578 4 10 282
1951267N13259 1951 73 EP MM NOT_NAMED 1951-09-25 06:00:00 TS 15.7098 -107.089 75 hurdat_epa main 461 457 O________OP___ hurdat_epa EP081951 15.7000 -107.100 HU 75 1 15.7000 -107.100 TC 75 15.7491 -107.043 4 9 285
1951267N13259 1951 73 EP MM NOT_NAMED 1951-09-25 09:00:00 TS 15.8474 -107.536 main 476 473 P________PP___ EP081951 15.8423 -107.543 HU 75 1 15.8423 -107.543 TC 75 15.8681 -107.512 4 9 288
1951267N13259 1951 73 EP MM NOT_NAMED 1951-09-25 12:00:00 TS 16.0000 -108.000 75 hurdat_epa main 493 493 O________OO___ hurdat_epa EP081951 16.0000 -108.000 HU 75 1 16.0000 -108.000 TC 75 16.0000 -108.000 4 10 287
1951267N13259 1951 73 EP MM NOT_NAMED 1951-09-25 15:00:00 TS 16.1428 -108.531 main 523 522 P________PP___ EP081951 16.1425 -108.535 HU 75 1 16.1425 -108.535 TC 75 16.1439 -108.513 4 11 286
1951267N13259 1951 73 EP MM NOT_NAMED 1951-09-25 18:00:00 TS 16.3009 -109.090 75 hurdat_epa main 553 553 O________OP___ hurdat_epa EP081951 16.3000 -109.100 HU 75 1 16.3000 -109.100 TC 75 16.3043 -109.048 4 11 288
1951267N13259 1951 73 EP MM NOT_NAMED 1951-09-25 21:00:00 TS 16.4853 -109.630 main 578 578 P________PP___ EP081951 16.4847 -109.635 HU 75 1 16.4847 -109.635 TC 75 16.4875 -109.610 4 11 291
1951267N13259 1951 73 EP MM NOT_NAMED 1951-09-26 00:00:00 TS 16.7000 -110.200 75 hurdat_epa main 616 616 O________OO___ hurdat_epa EP081951 16.7000 -110.200 HU 75 1 16.7000 -110.200 TC 75 16.7000 -110.200 4 12 291
1951267N13259 1951 73 EP MM NOT_NAMED 1951-09-26 03:00:00 TS 16.9398 -110.843 main 657 654 P________PP___ EP081951 16.9349 -110.835 HU 75 1 16.9349 -110.835 TC 75 16.9592 -110.873 4 14 292
1951267N13259 1951 73 EP MM NOT_NAMED 1951-09-26 06:00:00 TS 17.2088 -111.513 75 hurdat_epa main 656 642 O________OP___ hurdat_epa EP081951 17.2000 -111.500 HU 75 1 17.2000 -111.500 TC 75 17.2438 -111.566 4 14 294
1951267N13259 1951 73 EP MM NOT_NAMED 1951-09-26 09:00:00 TS 17.5124 -112.201 main 646 635 P________PP___ EP081951 17.5077 -112.195 HU 75 1 17.5077 -112.195 TC 75 17.5312 -112.226 4 14 296
1951267N13259 1951 73 EP MM NOT_NAMED 1951-09-26 12:00:00 TS 17.8000 -112.800 75 hurdat_epa main 640 635 O________OO___ hurdat_epa EP081951 17.8000 -112.800 HU 75 1 17.8000 -112.800 TC 75 17.8000 -112.800 4 11 298
1951267N13259 1951 73 EP MM NOT_NAMED 1951-09-26 15:00:00 TS 18.0158 -113.205 main 641 633 P________PP___ EP081951 18.0147 -113.203 HU 75 1 18.0147 -113.203 TC 75 18.0202 -113.211 4 8 301
1951267N13259 1951 73 EP MM NOT_NAMED 1951-09-26 18:00:00 TS 18.2042 -113.507 75 hurdat_epa main 639 633 O________OP___ hurdat_epa EP081951 18.2000 -113.500 HU 75 1 18.2000 -113.500 TC 75 18.2208 -113.534 4 7 304
1951267N13259 1951 73 EP MM NOT_NAMED 1951-09-26 21:00:00 TS 18.4021 -113.803 main 639 635 P________PP___ EP081951 18.3999 -113.800 HU 75 1 18.3999 -113.800 TC 75 18.4111 -113.814 4 7 305
1951267N13259 1951 73 EP MM NOT_NAMED 1951-09-27 00:00:00 TS 18.6000 -114.100 75 hurdat_epa main 642 641 O________OO___ hurdat_epa EP081951 18.6000 -114.100 HU 75 1 18.6000 -114.100 TC 75 18.6000 -114.100 4 7 304
1951267N13259 1951 73 EP MM NOT_NAMED 1951-09-27 03:00:00 TS 18.8040 -114.439 main 647 646 P________PP___ EP081951 18.7999 -114.435 HU 75 1 18.7999 -114.435 TC 75 18.8201 -114.452 4 8 301
1951267N13259 1951 73 EP MM NOT_NAMED 1951-09-27 06:00:00 TS 19.0074 -114.804 75 hurdat_epa main 662 662 O________OP___ hurdat_epa EP081951 19.0000 -114.800 HU 75 1 19.0000 -114.800 TC 75 19.0372 -114.820 4 8 300
1951267N13259 1951 73 EP MM NOT_NAMED 1951-09-27 09:00:00 TS 19.2191 -115.194 main 679 679 P________PP___ EP081951 19.2150 -115.192 HU 75 1 19.2150 -115.192 TC 75 19.2357 -115.202 4 8 298
1951267N13259 1951 73 EP MM NOT_NAMED 1951-09-27 12:00:00 TS 19.4000 -115.600 75 hurdat_epa main 691 691 O________OO___ hurdat_epa EP081951 19.4000 -115.600 HU 75 1 19.4000 -115.600 TC 75 19.4000 -115.600 4 8 292
1951267N13259 1951 73 EP MM NOT_NAMED 1951-09-27 15:00:00 TS 19.5207 -115.989 main 706 703 P________PP___ EP081951 19.5224 -115.993 HU 75 1 19.5224 -115.993 TC 75 19.5142 -115.975 4 8 285
1951267N13259 1951 73 EP MM NOT_NAMED 1951-09-27 18:00:00 TS 19.5987 -116.394 75 hurdat_epa main 721 721 O________OP___ hurdat_epa EP081951 19.6000 -116.400 HU 75 1 19.6000 -116.400 TC 75 19.5937 -116.368 4 8 280
1951267N13259 1951 73 EP MM NOT_NAMED 1951-09-27 21:00:00 TS 19.6561 -116.817 main 739 739 P________PP___ EP081951 19.6573 -116.820 HU 75 1 19.6573 -116.820 TC 75 19.6514 -116.803 4 9 277
1951267N13259 1951 73 EP MM NOT_NAMED 1951-09-28 00:00:00 TS 19.7000 -117.300 75 hurdat_epa main 773 773 O________OO___ hurdat_epa EP081951 19.7000 -117.300 HU 75 1 19.7000 -117.300 TC 75 19.7000 -117.300 4 10 275
1951267N13259 1951 73 EP MM NOT_NAMED 1951-09-28 03:00:00 TS 19.7498 -117.865 main 817 809 P________PP___ EP081951 19.7498 -117.863 HU 75 1 19.7498 -117.863 TC 75 19.7495 -117.875 4 11 275
1951267N13259 1951 73 EP MM NOT_NAMED 1951-09-28 06:00:00 TS 19.8001 -118.503 75 hurdat_epa main 855 855 O________OP___ hurdat_epa EP081951 19.8000 -118.500 HU 75 1 19.8000 -118.500 TC 75 19.8004 -118.514 4 13 275
1951267N13259 1951 73 EP MM NOT_NAMED 1951-09-28 09:00:00 TS 19.8507 -119.189 main 904 904 P________PP___ EP081951 19.8506 -119.187 HU 75 1 19.8506 -119.187 TC 75 19.8511 -119.196 4 13 274
1951267N13259 1951 73 EP MM NOT_NAMED 1951-09-28 12:00:00 TS 19.9000 -119.900 75 hurdat_epa main 962 O________OO___ hurdat_epa EP081951 19.9000 -119.900 HU 75 1 19.9000 -119.900 TC 75 19.9000 -119.900 4 13 274

IBTrACS Databaseについて

本データベースは、米国NOAAが公開する1842年以降の世界の熱帯低気圧のベストトラックデータアーカイブInternational Best Track Archive for Climate Stewardship (IBTrACS)を、ウェブで閲覧しやすい形式に変換したものです。

最終更新日:2021-10-21